createdAt,value
2022-08-26T00:02:17.024Z,28.77
2022-08-26T00:04:48.584Z,25.63
2022-08-26T00:07:19.020Z,27.50
2022-08-26T00:09:47.307Z,28.60
2022-08-26T00:12:15.319Z,27.50
2022-08-26T00:14:44.649Z,26.30
2022-08-26T00:17:12.807Z,26.50
2022-08-26T00:19:41.073Z,28.37
2022-08-26T00:22:09.383Z,26.50
2022-08-26T00:24:39.679Z,27.07
2022-08-26T00:27:16.061Z,27.97
2022-08-26T00:29:46.531Z,27.57
2022-08-26T00:32:14.775Z,26.60
2022-08-26T00:34:43.014Z,27.60
2022-08-26T00:37:15.641Z,46.27
2022-08-26T00:39:44.484Z,28.13
2022-08-26T00:42:13.738Z,28.27
2022-08-26T00:44:41.730Z,29.17
2022-08-26T00:47:31.045Z,28.43
2022-08-26T00:50:01.156Z,28.07
2022-08-26T00:52:29.744Z,27.13
2022-08-26T00:55:08.051Z,29.13
2022-08-26T00:57:37.923Z,27.08
2022-08-26T01:00:10.284Z,31.83
2022-08-26T01:02:40.845Z,33.53
2022-08-26T01:05:14.836Z,30.70
2022-08-26T01:07:43.144Z,30.23
2022-08-26T01:10:14.595Z,33.30
2022-08-26T01:12:46.033Z,28.93
2022-08-26T01:15:18.553Z,30.77
2022-08-26T01:17:48.630Z,29.10
2022-08-26T01:20:30.219Z,34.07
2022-08-26T01:23:03.302Z,34.53
2022-08-26T01:25:33.610Z,34.10
2022-08-26T01:28:09.211Z,29.93
2022-08-26T01:30:41.352Z,31.40
2022-08-26T01:33:14.453Z,51.20
2022-08-26T01:35:43.559Z,61.93
2022-08-26T01:38:13.836Z,52.57
2022-08-26T01:40:44.193Z,46.33
2022-08-26T01:43:18.514Z,46.20
2022-08-26T01:45:48.043Z,59.13
2022-08-26T01:48:21.249Z,58.20
2022-08-26T01:50:49.695Z,72.30
2022-08-26T01:53:22.855Z,61.60
2022-08-26T01:55:57.143Z,46.93
2022-08-26T01:58:31.534Z,42.63
2022-08-26T02:01:00.756Z,54.37
2022-08-26T02:03:31.275Z,43.57
2022-08-26T02:06:04.689Z,54.67
2022-08-26T02:08:51.519Z,155.77
2022-08-26T02:11:43.705Z,75.07
2022-08-26T02:17:31.178Z,44.00
2022-08-26T02:19:59.371Z,48.23
2022-08-26T02:22:27.636Z,34.73
2022-08-26T02:24:59.708Z,34.00
2022-08-26T02:27:32.271Z,37.03
2022-08-26T02:30:08.859Z,43.07
2022-08-26T02:32:40.066Z,32.20
2022-08-26T02:35:10.289Z,34.50
2022-08-26T02:37:41.825Z,34.67
2022-08-26T02:40:13.801Z,37.40
2022-08-26T02:42:42.519Z,52.57
2022-08-26T02:45:11.722Z,53.73
2022-08-26T02:47:39.547Z,48.30
2022-08-26T02:50:08.673Z,48.57
2022-08-26T02:52:39.351Z,40.87
2022-08-26T02:55:22.008Z,34.27
2022-08-26T02:57:54.397Z,36.27
2022-08-26T03:00:23.793Z,40.20
2022-08-26T03:02:51.798Z,57.20
2022-08-26T03:05:22.228Z,46.27
2022-08-26T03:07:53.294Z,67.93
2022-08-26T03:10:22.617Z,48.77
2022-08-26T03:12:50.630Z,41.73
2022-08-26T03:18:09.586Z,38.80
2022-08-26T03:20:38.857Z,63.60
2022-08-26T03:23:07.830Z,84.77
2022-08-26T03:25:37.838Z,98.33
2022-08-26T03:28:05.999Z,76.10
2022-08-26T03:30:44.213Z,92.10
2022-08-26T03:33:15.705Z,95.97
2022-08-26T03:35:47.416Z,66.50
2022-08-26T03:38:16.101Z,64.40
2022-08-26T03:40:44.695Z,66.17
2022-08-26T03:43:13.391Z,83.17
2022-08-26T03:45:42.849Z,86.70
2022-08-26T03:48:13.921Z,73.43
2022-08-26T03:50:41.692Z,67.07
2022-08-26T03:53:12.811Z,71.23
2022-08-26T03:55:41.704Z,102.00
2022-08-26T03:58:09.633Z,89.80
2022-08-26T04:00:37.467Z,147.43
2022-08-26T04:03:09.665Z,169.70
2022-08-26T04:05:39.075Z,133.67
2022-08-26T04:08:07.430Z,103.90
2022-08-26T04:10:35.548Z,70.83
2022-08-26T04:15:46.385Z,76.20
2022-08-26T04:18:16.405Z,97.93
2022-08-26T04:20:47.333Z,65.00
2022-08-26T04:23:15.352Z,64.87
2022-08-26T04:25:45.438Z,68.87
2022-08-26T04:28:14.950Z,77.93
2022-08-26T04:30:43.154Z,78.33
2022-08-26T04:33:13.505Z,87.43
2022-08-26T04:35:44.215Z,86.47
2022-08-26T04:38:12.998Z,92.10
2022-08-26T04:40:46.829Z,70.50
2022-08-26T04:43:15.547Z,59.80
2022-08-26T04:45:46.974Z,54.90
2022-08-26T04:48:16.917Z,36.87
2022-08-26T04:50:49.385Z,31.87
2022-08-26T04:53:17.675Z,31.90
2022-08-26T04:55:45.545Z,33.87
2022-08-26T04:58:17.284Z,34.03
2022-08-26T05:00:45.852Z,35.37
2022-08-26T05:03:14.607Z,31.70
2022-08-26T05:05:46.575Z,31.83
2022-08-26T05:08:16.414Z,32.47
2022-08-26T05:10:48.437Z,32.00
2022-08-26T05:13:19.111Z,30.33
2022-08-26T05:15:49.741Z,29.83
2022-08-26T05:18:22.689Z,30.20
2022-08-26T05:21:15.617Z,29.03
2022-08-26T05:23:45.555Z,28.33
2022-08-26T05:26:13.347Z,31.67
2022-08-26T05:28:44.488Z,42.63
2022-08-26T05:31:15.092Z,43.77
2022-08-26T05:33:48.815Z,48.58
2022-08-26T05:36:19.375Z,50.17
2022-08-26T05:38:49.145Z,48.33
2022-08-26T05:41:19.709Z,40.17
2022-08-26T05:43:51.996Z,51.30
2022-08-26T05:46:20.304Z,60.45
2022-08-26T05:48:48.165Z,58.85
2022-08-26T05:51:16.240Z,72.47
2022-08-26T05:53:54.796Z,49.92
2022-08-26T05:56:27.712Z,66.30
2022-08-26T05:58:58.539Z,82.75
2022-08-26T06:01:30.232Z,98.28
2022-08-26T06:04:02.129Z,80.63
2022-08-26T06:06:33.310Z,80.22
2022-08-26T06:09:04.635Z,89.30
2022-08-26T06:11:34.246Z,101.57
2022-08-26T06:14:04.414Z,118.72
2022-08-26T06:16:35.008Z,142.95
2022-08-26T06:19:10.571Z,150.32
2022-08-26T06:21:41.498Z,145.80
2022-08-26T06:24:29.201Z,204.48
2022-08-26T06:27:23.670Z,210.38
2022-08-26T06:29:51.623Z,237.00
2022-08-26T06:32:20.767Z,238.07
2022-08-26T06:34:56.334Z,215.52
2022-08-26T06:37:24.455Z,207.10
2022-08-26T06:39:52.301Z,174.60
2022-08-26T06:42:22.953Z,157.10
2022-08-26T06:44:51.012Z,143.80
2022-08-26T06:47:18.820Z,175.02
2022-08-26T06:49:47.537Z,143.40
2022-08-26T06:52:22.990Z,158.63
2022-08-26T06:54:52.485Z,190.32
2022-08-26T06:57:22.185Z,274.58
2022-08-26T06:59:51.178Z,263.05
2022-08-26T07:02:19.615Z,286.80
2022-08-26T07:04:48.624Z,333.27
2022-08-26T07:07:21.632Z,366.73
2022-08-26T07:09:52.652Z,337.20
2022-08-26T07:12:22.114Z,467.42
2022-08-26T07:14:50.323Z,371.98
2022-08-26T07:17:18.322Z,317.48
2022-08-26T07:19:48.660Z,332.10
2022-08-26T07:22:18.817Z,360.38
2022-08-26T07:24:46.986Z,401.13
2022-08-26T07:27:17.326Z,384.33
2022-08-26T07:29:46.711Z,365.33
2022-08-26T07:32:16.266Z,381.45
2022-08-26T07:34:44.562Z,388.83
2022-08-26T07:37:12.869Z,397.38
2022-08-26T07:39:41.825Z,366.42
2022-08-26T07:42:13.098Z,370.58
2022-08-26T07:44:42.759Z,380.35
2022-08-26T07:47:24.770Z,380.00
2022-08-26T07:49:54.547Z,351.52
2022-08-26T07:52:26.366Z,380.80
2022-08-26T07:54:56.139Z,373.85
2022-08-26T07:57:24.717Z,388.83
2022-08-26T07:59:54.963Z,380.60
2022-08-26T08:02:25.432Z,380.85
2022-08-26T08:04:54.005Z,361.13
2022-08-26T08:07:38.550Z,370.85
2022-08-26T08:10:11.410Z,375.20
2022-08-26T08:12:40.156Z,374.65
2022-08-26T08:15:09.887Z,339.80
2022-08-26T08:17:39.165Z,358.40
2022-08-26T08:20:08.415Z,367.08
2022-08-26T08:22:36.402Z,368.30
2022-08-26T08:25:08.086Z,376.85
2022-08-26T08:27:37.055Z,369.92
2022-08-26T08:30:06.343Z,367.45
2022-08-26T08:32:35.809Z,367.73
2022-08-26T08:35:11.121Z,369.52
2022-08-26T08:37:39.530Z,380.35
2022-08-26T08:40:08.999Z,350.92
2022-08-26T08:42:45.812Z,365.13
2022-08-26T08:45:20.179Z,375.33
2022-08-26T08:47:54.647Z,378.25
2022-08-26T08:50:28.365Z,373.90
2022-08-26T08:53:04.083Z,381.23
2022-08-26T08:55:50.104Z,366.73
2022-08-26T08:58:20.771Z,373.85
2022-08-26T09:00:53.924Z,362.30
2022-08-26T09:03:39.492Z,368.38
2022-08-26T09:06:17.324Z,331.88
2022-08-26T09:08:47.761Z,347.45
2022-08-26T09:11:19.646Z,344.20
2022-08-26T09:13:51.322Z,355.67
2022-08-26T09:16:25.472Z,366.30
2022-08-26T09:19:05.396Z,394.17
2022-08-26T09:21:35.007Z,361.75
2022-08-26T09:24:02.900Z,354.55
2022-08-26T09:26:42.798Z,389.92
2022-08-26T09:31:50.638Z,355.10
2022-08-26T09:34:22.155Z,369.98
2022-08-26T09:36:53.667Z,351.25
2022-08-26T09:39:33.377Z,361.55
2022-08-26T09:42:10.645Z,353.27
2022-08-26T09:44:54.767Z,362.15
2022-08-26T09:47:28.012Z,371.00
2022-08-26T09:50:04.409Z,361.73
2022-08-26T09:52:40.568Z,346.55
2022-08-26T09:55:15.618Z,346.65
2022-08-26T09:57:51.040Z,356.10
2022-08-26T10:00:31.574Z,325.40
2022-08-26T10:03:01.084Z,376.45
2022-08-26T10:05:34.207Z,401.25
2022-08-26T10:08:18.665Z,370.80
2022-08-26T10:10:48.912Z,356.25
2022-08-26T10:13:26.884Z,356.00
2022-08-26T10:16:03.120Z,374.63
2022-08-26T10:18:37.821Z,373.55
2022-08-26T10:21:10.157Z,371.02
2022-08-26T10:23:44.016Z,417.05
2022-08-26T10:26:17.419Z,418.20
2022-08-26T10:28:50.974Z,358.67
2022-08-26T10:31:27.911Z,333.23
2022-08-26T10:34:00.447Z,307.67
2022-08-26T10:37:14.592Z,304.42
2022-08-26T10:39:57.027Z,304.48
2022-08-26T10:42:33.215Z,327.67
2022-08-26T10:45:11.777Z,338.33
2022-08-26T10:47:47.620Z,355.15
2022-08-26T10:50:18.041Z,361.02
2022-08-26T10:52:56.713Z,356.92
2022-08-26T10:55:34.978Z,337.50
2022-08-26T10:58:15.917Z,348.17
2022-08-26T11:01:17.855Z,364.88
2022-08-26T11:03:58.212Z,377.15
2022-08-26T11:06:29.024Z,406.90
2022-08-26T11:08:58.613Z,413.35
2022-08-26T11:11:48.287Z,419.25
2022-08-26T11:14:46.159Z,406.15
2022-08-26T11:17:56.753Z,378.45
2022-08-26T11:20:36.740Z,387.23
2022-08-26T11:23:50.236Z,417.90
2022-08-26T11:26:35.807Z,419.88
2022-08-26T11:29:12.012Z,418.92
2022-08-26T11:32:02.575Z,388.13
2022-08-26T11:34:54.225Z,389.95
2022-08-26T11:37:27.313Z,424.33
2022-08-26T11:39:57.221Z,401.63
2022-08-26T11:42:34.365Z,406.05
2022-08-26T11:45:14.501Z,340.17
2022-08-26T11:47:42.432Z,310.65
2022-08-26T11:50:13.815Z,336.45
2022-08-26T11:52:41.655Z,321.40
2022-08-26T11:55:12.162Z,289.05
2022-08-26T11:57:46.253Z,299.95
2022-08-26T12:00:22.857Z,257.10
2022-08-26T12:02:53.488Z,252.80
2022-08-26T12:05:25.458Z,284.63
2022-08-26T12:07:55.756Z,278.73
2022-08-26T12:10:30.102Z,287.30
2022-08-26T12:12:59.901Z,324.60
2022-08-26T12:15:30.740Z,336.17
2022-08-26T12:17:59.350Z,320.67
2022-08-26T12:20:46.494Z,416.33
2022-08-26T12:23:29.345Z,286.90
2022-08-26T12:26:06.812Z,421.50
2022-08-26T12:28:35.739Z,245.50
2022-08-26T12:31:07.712Z,363.38
2022-08-26T12:33:39.416Z,481.27
2022-08-26T12:36:08.044Z,552.38
2022-08-26T12:38:40.557Z,677.60
2022-08-26T12:41:08.942Z,967.60
2022-08-26T12:43:40.966Z,316.38
2022-08-26T12:46:13.217Z,233.15
2022-08-26T12:48:45.799Z,263.15
2022-08-26T12:51:42.824Z,280.80
2022-08-26T12:54:16.016Z,163.97
2022-08-26T12:56:44.511Z,119.30
2022-08-26T12:59:25.352Z,61.33
2022-08-26T13:01:55.401Z,52.33
2022-08-26T13:04:43.891Z,52.87
2022-08-26T13:07:21.615Z,52.20
2022-08-26T13:09:50.762Z,56.73
2022-08-26T13:12:28.248Z,76.07
2022-08-26T13:15:00.883Z,76.13
2022-08-26T13:17:31.866Z,84.43
2022-08-26T13:20:04.058Z,82.80
2022-08-26T13:22:32.903Z,78.30
2022-08-26T13:25:01.288Z,79.70
2022-08-26T13:27:29.294Z,78.80
2022-08-26T13:29:59.474Z,70.20
2022-08-26T13:32:30.429Z,69.47
2022-08-26T13:35:00.627Z,65.50
2022-08-26T13:37:35.396Z,65.93
2022-08-26T13:40:06.381Z,64.43
2022-08-26T13:42:34.402Z,70.03
2022-08-26T13:45:03.681Z,74.67
2022-08-26T13:47:36.712Z,79.87
2022-08-26T13:50:06.913Z,85.37
2022-08-26T13:52:35.385Z,80.10
2022-08-26T13:55:04.033Z,77.33
2022-08-26T13:57:32.250Z,79.10
2022-08-26T14:00:00.725Z,84.07
2022-08-26T14:02:32.332Z,99.67
2022-08-26T14:05:02.156Z,101.30
2022-08-26T14:07:32.337Z,105.23
2022-08-26T14:10:00.685Z,110.80
2022-08-26T14:12:29.936Z,110.43
2022-08-26T14:15:00.660Z,112.63
2022-08-26T14:17:30.772Z,119.50
2022-08-26T14:19:59.020Z,113.70
2022-08-26T14:22:31.641Z,116.70
2022-08-26T14:25:01.600Z,110.87
2022-08-26T14:27:29.517Z,125.97
2022-08-26T14:29:58.330Z,114.00
2022-08-26T14:32:31.244Z,119.40
2022-08-26T14:35:01.390Z,116.50
2022-08-26T14:37:31.938Z,111.77
2022-08-26T14:43:51.019Z,97.83
2022-08-26T14:46:19.174Z,102.87
2022-08-26T14:48:49.741Z,105.43
2022-08-26T14:51:21.645Z,103.10
2022-08-26T14:54:08.777Z,102.90
2022-08-26T14:56:38.893Z,113.17
2022-08-26T14:59:07.231Z,109.97
2022-08-26T15:01:37.017Z,116.40
2022-08-26T15:04:05.786Z,125.60
2022-08-26T15:06:36.435Z,131.53
2022-08-26T15:09:06.196Z,130.75
2022-08-26T15:11:34.757Z,150.37
2022-08-26T15:14:02.867Z,157.40
2022-08-26T15:16:33.061Z,153.73
2022-08-26T15:19:05.491Z,155.33
2022-08-26T15:21:34.168Z,147.43
2022-08-26T15:24:06.369Z,161.52
2022-08-26T15:26:35.667Z,165.38
2022-08-26T15:29:05.146Z,164.93
2022-08-26T15:31:35.100Z,154.63
2022-08-26T15:34:06.442Z,148.32
2022-08-26T15:36:35.849Z,163.07
2022-08-26T15:39:07.436Z,165.52
2022-08-26T15:41:35.865Z,178.30
2022-08-26T15:44:05.654Z,175.43
2022-08-26T15:46:33.615Z,161.05
2022-08-26T15:49:01.698Z,165.20
2022-08-26T15:51:32.827Z,165.95
2022-08-26T15:54:03.050Z,153.98
2022-08-26T15:56:36.239Z,156.57
2022-08-26T15:59:06.555Z,155.80
2022-08-26T16:01:35.856Z,144.15
2022-08-26T16:04:04.903Z,152.18
2022-08-26T16:06:34.619Z,136.77
2022-08-26T16:09:03.064Z,146.23
2022-08-26T16:11:32.919Z,132.40
2022-08-26T16:14:02.258Z,132.75
2022-08-26T16:16:31.032Z,130.50
2022-08-26T16:19:00.542Z,131.48
2022-08-26T16:21:34.645Z,124.45
2022-08-26T16:24:03.389Z,113.13
2022-08-26T16:26:34.065Z,106.53
2022-08-26T16:29:05.580Z,105.78
2022-08-26T16:31:34.013Z,118.43
2022-08-26T16:34:01.859Z,111.57
2022-08-26T16:36:30.577Z,114.50
2022-08-26T16:38:58.555Z,107.53
2022-08-26T16:41:28.995Z,104.93
2022-08-26T16:44:02.913Z,111.32
2022-08-26T16:46:33.219Z,114.47
2022-08-26T16:49:04.598Z,109.20
2022-08-26T16:51:37.632Z,114.15
2022-08-26T16:54:07.586Z,106.47
2022-08-26T16:56:35.989Z,112.32
2022-08-26T16:59:06.255Z,115.75
2022-08-26T17:01:36.041Z,109.80
2022-08-26T17:04:04.886Z,128.55
2022-08-26T17:06:34.360Z,128.37
2022-08-26T17:09:03.208Z,136.47
2022-08-26T17:11:31.001Z,125.00
2022-08-26T17:13:59.560Z,130.47
2022-08-26T17:16:28.523Z,123.13
2022-08-26T17:18:59.411Z,128.23
2022-08-26T17:21:29.056Z,126.73
2022-08-26T17:23:59.023Z,108.97
2022-08-26T17:26:30.577Z,122.80
2022-08-26T17:29:00.249Z,123.57
2022-08-26T17:31:28.216Z,124.27
2022-08-26T17:33:57.041Z,129.07
2022-08-26T17:36:27.980Z,126.37
2022-08-26T17:38:57.800Z,125.13
2022-08-26T17:41:26.688Z,124.07
2022-08-26T17:43:54.714Z,121.27
2022-08-26T17:46:23.050Z,123.20
2022-08-26T17:48:54.380Z,125.43
2022-08-26T17:51:27.490Z,128.40
2022-08-26T17:53:55.888Z,122.27
2022-08-26T17:56:26.504Z,129.73
2022-08-26T17:58:56.976Z,145.43
2022-08-26T18:01:27.418Z,148.20
2022-08-26T18:04:00.244Z,148.10
2022-08-26T18:06:33.725Z,143.90
2022-08-26T18:09:02.758Z,148.10
2022-08-26T18:11:32.257Z,165.90
2022-08-26T18:14:00.957Z,162.93
2022-08-26T18:16:31.571Z,160.57
2022-08-26T18:18:59.765Z,159.43
2022-08-26T18:21:30.416Z,162.20
2022-08-26T18:23:58.913Z,151.77
2022-08-26T18:26:29.076Z,157.90
2022-08-26T18:28:57.372Z,154.97
2022-08-26T18:31:26.426Z,149.33
2022-08-26T18:33:57.241Z,152.53
2022-08-26T18:36:27.726Z,154.50
2022-08-26T18:38:58.658Z,159.80
2022-08-26T18:41:29.409Z,143.33
2022-08-26T18:43:58.993Z,151.80
2022-08-26T18:46:29.281Z,153.67
2022-08-26T18:48:58.604Z,149.03
2022-08-26T18:51:29.759Z,157.07
2022-08-26T18:54:00.733Z,156.93
2022-08-26T18:59:12.523Z,147.53
2022-08-26T19:01:42.529Z,158.57
2022-08-26T19:04:15.292Z,159.40
2022-08-26T19:06:44.566Z,148.23
2022-08-26T19:09:14.740Z,150.80
2022-08-26T19:11:46.585Z,148.27
2022-08-26T19:14:18.349Z,148.57
2022-08-26T19:16:49.271Z,151.67
2022-08-26T19:19:18.489Z,153.10
2022-08-26T19:21:47.260Z,165.43
2022-08-26T19:24:18.525Z,157.67
2022-08-26T19:26:57.728Z,159.30
2022-08-26T19:30:25.597Z,151.47
2022-08-26T19:32:57.639Z,143.90
2022-08-26T19:35:45.890Z,146.20
2022-08-26T19:38:19.413Z,147.77
2022-08-26T19:40:51.879Z,150.07
2022-08-26T19:43:20.737Z,149.73
2022-08-26T19:45:57.032Z,152.60
2022-08-26T19:48:25.675Z,162.53
2022-08-26T19:50:54.153Z,158.30
2022-08-26T19:53:22.603Z,150.90
2022-08-26T19:55:54.702Z,142.17
2022-08-26T19:58:25.338Z,142.97
2022-08-26T20:00:59.718Z,143.30
2022-08-26T20:07:18.083Z,128.77
2022-08-26T20:09:49.414Z,142.37
2022-08-26T20:12:24.918Z,155.33
2022-08-26T20:14:56.275Z,145.17
2022-08-26T20:17:27.658Z,149.07
2022-08-26T20:20:32.881Z,158.40
2022-08-26T20:23:23.107Z,141.17
2022-08-26T20:25:50.937Z,147.83
2022-08-26T20:28:30.713Z,162.97
2022-08-26T20:30:59.062Z,151.67
2022-08-26T20:33:30.811Z,165.90
2022-08-26T20:36:14.935Z,161.47
2022-08-26T20:38:44.289Z,157.93
2022-08-26T20:41:12.672Z,166.87
2022-08-26T20:43:59.522Z,173.60
2022-08-26T20:46:29.094Z,162.23
2022-08-26T20:48:57.718Z,170.37
2022-08-26T20:51:38.181Z,160.47
2022-08-26T20:54:15.695Z,162.57
2022-08-26T20:56:46.079Z,169.73
2022-08-26T20:59:19.213Z,173.23
2022-08-26T21:02:28.574Z,164.40
2022-08-26T21:04:56.479Z,162.37
2022-08-26T21:07:26.772Z,169.30
2022-08-26T21:09:55.598Z,161.40
2022-08-26T21:12:23.726Z,162.07
2022-08-26T21:14:53.390Z,170.87
2022-08-26T21:17:21.565Z,175.80
2022-08-26T21:19:49.524Z,166.30
2022-08-26T21:22:30.136Z,169.53
2022-08-26T21:25:03.513Z,266.67
2022-08-26T21:27:31.397Z,658.07
2022-08-26T21:30:01.756Z,742.77
2022-08-26T21:32:39.100Z,586.63
2022-08-26T21:35:08.376Z,560.47
2022-08-26T21:37:37.032Z,675.77
2022-08-26T21:40:09.378Z,666.47
2022-08-26T21:42:37.632Z,633.00
2022-08-26T21:45:17.356Z,456.23
2022-08-26T21:47:45.817Z,511.50
2022-08-26T21:50:15.077Z,688.47
2022-08-26T21:52:44.030Z,736.63
2022-08-26T21:55:12.853Z,677.40
2022-08-26T21:57:41.173Z,601.67
2022-08-26T22:00:13.417Z,612.77
2022-08-26T22:03:18.736Z,582.67
2022-08-26T22:06:50.870Z,525.60
2022-08-26T22:09:32.396Z,442.77
2022-08-26T22:12:01.109Z,548.27
2022-08-26T22:14:43.714Z,589.63
2022-08-26T22:17:31.153Z,532.87
2022-08-26T22:20:06.901Z,525.80
2022-08-26T22:22:45.243Z,590.73
2022-08-26T22:25:13.652Z,659.53
2022-08-26T22:27:44.319Z,452.93
2022-08-26T22:30:12.865Z,422.37
2022-08-26T22:32:45.045Z,534.43
2022-08-26T22:35:29.361Z,608.77
2022-08-26T22:38:00.043Z,446.03
2022-08-26T22:40:31.662Z,528.87
2022-08-26T22:43:13.837Z,463.07
2022-08-26T22:45:42.931Z,491.53
2022-08-26T22:48:16.543Z,573.80
2022-08-26T22:50:44.934Z,593.03
2022-08-26T22:53:16.994Z,544.23
2022-08-26T22:55:46.051Z,600.37
2022-08-26T22:58:18.297Z,585.00
2022-08-26T23:00:50.471Z,520.40
2022-08-26T23:03:21.187Z,577.33
2022-08-26T23:09:32.000Z,338.43
2022-08-26T23:12:00.119Z,200.57
2022-08-26T23:14:28.394Z,526.67
2022-08-26T23:16:59.638Z,439.70
2022-08-26T23:19:28.894Z,382.90
2022-08-26T23:22:01.462Z,412.07
2022-08-26T23:24:30.733Z,373.97
2022-08-26T23:27:00.844Z,374.50
2022-08-26T23:29:31.899Z,431.03
2022-08-26T23:32:12.631Z,389.43
2022-08-26T23:34:59.869Z,436.03
2022-08-26T23:37:32.007Z,372.20
2022-08-26T23:40:07.415Z,379.87
2022-08-26T23:42:36.380Z,289.23
2022-08-26T23:45:05.789Z,456.60
2022-08-26T23:47:34.523Z,421.23
2022-08-26T23:50:08.530Z,291.90
2022-08-26T23:52:56.419Z,242.77
2022-08-26T23:55:24.324Z,269.10
2022-08-26T23:57:56.612Z,280.00
